sensor_id;sensor_type;location;lat;lon;timestamp;temperature;humidity
15926;DHT22;8062;53.882;10.642;2023-02-01T00:01:06;5.40;99.90
15926;DHT22;8062;53.882;10.642;2023-02-01T00:02:27;5.40;99.90
15926;DHT22;8062;53.882;10.642;2023-02-01T00:03:47;5.30;99.90
15926;DHT22;8062;53.882;10.642;2023-02-01T00:05:08;5.40;99.90
15926;DHT22;8062;53.882;10.642;2023-02-01T00:06:28;5.30;99.90
15926;DHT22;8062;53.882;10.642;2023-02-01T00:07:48;5.40;99.90
15926;DHT22;8062;53.882;10.642;2023-02-01T00:09:08;5.40;99.90
15926;DHT22;8062;53.882;10.642;2023-02-01T00:10:28;5.30;99.90
15926;DHT22;8062;53.882;10.642;2023-02-01T00:11:47;5.30;99.90
15926;DHT22;8062;53.882;10.642;2023-02-01T00:13:07;5.40;99.90
15926;DHT22;8062;53.882;10.642;2023-02-01T00:14:27;5.40;99.90
15926;DHT22;8062;53.882;10.642;2023-02-01T00:15:47;5.40;99.90
15926;DHT22;8062;53.882;10.642;2023-02-01T00:17:07;5.40;99.90
15926;DHT22;8062;53.882;10.642;2023-02-01T00:18:26;5.40;99.90
15926;DHT22;8062;53.882;10.642;2023-02-01T00:19:46;5.40;99.90
15926;DHT22;8062;53.882;10.642;2023-02-01T00:21:05;5.40;99.90
15926;DHT22;8062;53.882;10.642;2023-02-01T00:22:25;5.40;99.90
15926;DHT22;8062;53.882;10.642;2023-02-01T00:23:45;5.40;99.90
15926;DHT22;8062;53.882;10.642;2023-02-01T00:25:05;5.40;99.90
15926;DHT22;8062;53.882;10.642;2023-02-01T00:26:34;5.40;99.90
15926;DHT22;8062;53.882;10.642;2023-02-01T00:27:54;5.40;99.90
15926;DHT22;8062;53.882;10.642;2023-02-01T00:29:18;5.40;99.90
15926;DHT22;8062;53.882;10.642;2023-02-01T00:30:38;5.40;99.90
15926;DHT22;8062;53.882;10.642;2023-02-01T00:31:58;5.40;99.90
15926;DHT22;8062;53.882;10.642;2023-02-01T00:33:17;5.40;99.90
15926;DHT22;8062;53.882;10.642;2023-02-01T00:34:37;5.40;99.90
15926;DHT22;8062;53.882;10.642;2023-02-01T00:36:02;5.40;99.90
15926;DHT22;8062;53.882;10.642;2023-02-01T00:37:22;5.40;99.90
15926;DHT22;8062;53.882;10.642;2023-02-01T00:38:42;5.40;99.90
15926;DHT22;8062;53.882;10.642;2023-02-01T00:40:02;5.50;99.90
15926;DHT22;8062;53.882;10.642;2023-02-01T00:41:22;5.50;99.90
15926;DHT22;8062;53.882;10.642;2023-02-01T00:42:42;5.50;99.90
15926;DHT22;8062;53.882;10.642;2023-02-01T00:44:02;5.50;99.90
15926;DHT22;8062;53.882;10.642;2023-02-01T00:45:23;5.50;99.90
15926;DHT22;8062;53.882;10.642;2023-02-01T00:46:42;5.40;99.90
15926;DHT22;8062;53.882;10.642;2023-02-01T00:48:02;5.40;99.90
15926;DHT22;8062;53.882;10.642;2023-02-01T00:49:21;5.50;99.90
15926;DHT22;8062;53.882;10.642;2023-02-01T00:50:42;5.50;99.90
15926;DHT22;8062;53.882;10.642;2023-02-01T00:52:02;5.40;99.90
15926;DHT22;8062;53.882;10.642;2023-02-01T00:53:22;5.40;99.90
15926;DHT22;8062;53.882;10.642;2023-02-01T00:54:42;5.40;99.90
15926;DHT22;8062;53.882;10.642;2023-02-01T00:56:02;5.40;99.90
15926;DHT22;8062;53.882;10.642;2023-02-01T00:57:21;5.40;99.90
15926;DHT22;8062;53.882;10.642;2023-02-01T00:58:41;5.40;99.90
15926;DHT22;8062;53.882;10.642;2023-02-01T01:00:00;5.40;99.90
15926;DHT22;8062;53.882;10.642;2023-02-01T01:01:22;5.50;99.90
15926;DHT22;8062;53.882;10.642;2023-02-01T01:02:42;5.40;99.90
15926;DHT22;8062;53.882;10.642;2023-02-01T01:04:02;5.50;99.90
15926;DHT22;8062;53.882;10.642;2023-02-01T01:05:22;5.50;99.90
15926;DHT22;8062;53.882;10.642;2023-02-01T01:06:43;5.50;99.90
15926;DHT22;8062;53.882;10.642;2023-02-01T01:08:02;5.50;99.90
15926;DHT22;8062;53.882;10.642;2023-02-01T01:09:22;5.50;99.90
15926;DHT22;8062;53.882;10.642;2023-02-01T01:10:42;5.40;99.90
15926;DHT22;8062;53.882;10.642;2023-02-01T01:12:02;5.40;99.90
15926;DHT22;8062;53.882;10.642;2023-02-01T01:13:23;5.50;99.90
15926;DHT22;8062;53.882;10.642;2023-02-01T01:14:43;5.50;99.90
15926;DHT22;8062;53.882;10.642;2023-02-01T01:16:04;5.50;99.90
15926;DHT22;8062;53.882;10.642;2023-02-01T01:17:24;5.50;99.90
15926;DHT22;8062;53.882;10.642;2023-02-01T01:18:44;5.50;99.90
15926;DHT22;8062;53.882;10.642;2023-02-01T01:20:04;5.50;99.90
15926;DHT22;8062;53.882;10.642;2023-02-01T01:21:24;5.50;99.90
15926;DHT22;8062;53.882;10.642;2023-02-01T01:22:44;5.50;99.90
15926;DHT22;8062;53.882;10.642;2023-02-01T01:24:04;5.50;99.90
15926;DHT22;8062;53.882;10.642;2023-02-01T01:25:23;5.50;99.90
15926;DHT22;8062;53.882;10.642;2023-02-01T01:26:43;5.50;99.90
15926;DHT22;8062;53.882;10.642;2023-02-01T01:28:02;5.50;99.90
15926;DHT22;8062;53.882;10.642;2023-02-01T01:29:22;5.60;99.90
15926;DHT22;8062;53.882;10.642;2023-02-01T01:30:42;5.50;99.90
15926;DHT22;8062;53.882;10.642;2023-02-01T01:32:01;5.60;99.90
15926;DHT22;8062;53.882;10.642;2023-02-01T01:33:21;5.60;99.90
15926;DHT22;8062;53.882;10.642;2023-02-01T01:34:40;5.60;99.90
15926;DHT22;8062;53.882;10.642;2023-02-01T01:36:00;5.60;99.90
15926;DHT22;8062;53.882;10.642;2023-02-01T01:37:20;5.60;99.90
15926;DHT22;8062;53.882;10.642;2023-02-01T01:38:41;5.60;99.90
15926;DHT22;8062;53.882;10.642;2023-02-01T01:40:03;5.60;99.90
15926;DHT22;8062;53.882;10.642;2023-02-01T01:41:29;5.60;99.90
15926;DHT22;8062;53.882;10.642;2023-02-01T01:42:53;5.60;99.90
15926;DHT22;8062;53.882;10.642;2023-02-01T01:46:16;5.60;99.90
15926;DHT22;8062;53.882;10.642;2023-02-01T01:47:40;5.60;99.90
15926;DHT22;8062;53.882;10.642;2023-02-01T01:49:12;5.50;99.90
15926;DHT22;8062;53.882;10.642;2023-02-01T01:50:35;5.50;99.90
15926;DHT22;8062;53.882;10.642;2023-02-01T01:51:59;5.50;99.90
15926;DHT22;8062;53.882;10.642;2023-02-01T01:53:25;5.50;99.90
15926;DHT22;8062;53.882;10.642;2023-02-01T01:54:49;5.50;99.90
15926;DHT22;8062;53.882;10.642;2023-02-01T01:56:11;5.60;99.90
15926;DHT22;8062;53.882;10.642;2023-02-01T01:57:34;5.60;99.90
15926;DHT22;8062;53.882;10.642;2023-02-01T01:58:55;5.60;99.90
15926;DHT22;8062;53.882;10.642;2023-02-01T02:00:17;5.60;99.90
15926;DHT22;8062;53.882;10.642;2023-02-01T02:01:39;5.60;99.90
15926;DHT22;8062;53.882;10.642;2023-02-01T02:03:03;5.50;99.90
15926;DHT22;8062;53.882;10.642;2023-02-01T02:04:26;5.60;99.90
15926;DHT22;8062;53.882;10.642;2023-02-01T02:05:47;5.50;99.90
15926;DHT22;8062;53.882;10.642;2023-02-01T02:07:11;5.60;99.90
15926;DHT22;8062;53.882;10.642;2023-02-01T02:08:32;5.60;99.90
15926;DHT22;8062;53.882;10.642;2023-02-01T02:09:52;5.60;99.90
15926;DHT22;8062;53.882;10.642;2023-02-01T02:11:15;5.60;99.90
15926;DHT22;8062;53.882;10.642;2023-02-01T02:12:38;5.60;99.90
15926;DHT22;8062;53.882;10.642;2023-02-01T02:13:58;5.60;99.90
15926;DHT22;8062;53.882;10.642;2023-02-01T02:15:18;5.60;99.90
15926;DHT22;8062;53.882;10.642;2023-02-01T02:18:31;5.60;99.90
15926;DHT22;8062;53.882;10.642;2023-02-01T02:27:14;5.60;99.90
15926;DHT22;8062;53.882;10.642;2023-02-01T02:30:42;5.70;99.90
15926;DHT22;8062;53.882;10.642;2023-02-01T02:34:03;5.70;99.90
15926;DHT22;8062;53.882;10.642;2023-02-01T02:35:35;5.70;99.90
15926;DHT22;8062;53.882;10.642;2023-02-01T02:37:06;5.70;99.90
15926;DHT22;8062;53.882;10.642;2023-02-01T02:38:33;5.70;99.90
15926;DHT22;8062;53.882;10.642;2023-02-01T02:40:07;5.70;99.90
15926;DHT22;8062;53.882;10.642;2023-02-01T02:41:37;5.70;99.90
15926;DHT22;8062;53.882;10.642;2023-02-01T02:43:22;5.60;99.90
15926;DHT22;8062;53.882;10.642;2023-02-01T02:45:08;5.60;99.90
15926;DHT22;8062;53.882;10.642;2023-02-01T02:46:49;5.50;99.90
15926;DHT22;8062;53.882;10.642;2023-02-01T02:48:36;5.50;99.90
15926;DHT22;8062;53.882;10.642;2023-02-01T02:50:09;5.60;99.90
15926;DHT22;8062;53.882;10.642;2023-02-01T02:51:55;5.60;99.90
15926;DHT22;8062;53.882;10.642;2023-02-01T02:54:13;5.50;99.90
15926;DHT22;8062;53.882;10.642;2023-02-01T02:55:51;5.60;99.90
15926;DHT22;8062;53.882;10.642;2023-02-01T02:57:24;5.60;99.90
15926;DHT22;8062;53.882;10.642;2023-02-01T02:59:04;5.60;99.90
15926;DHT22;8062;53.882;10.642;2023-02-01T03:00:44;5.60;99.90
15926;DHT22;8062;53.882;10.642;2023-02-01T03:02:24;5.60;99.90
15926;DHT22;8062;53.882;10.642;2023-02-01T03:04:04;5.70;99.90
15926;DHT22;8062;53.882;10.642;2023-02-01T03:05:41;5.70;99.90
15926;DHT22;8062;53.882;10.642;2023-02-01T03:07:13;5.70;99.90
15926;DHT22;8062;53.882;10.642;2023-02-01T03:08:33;5.60;99.90
15926;DHT22;8062;53.882;10.642;2023-02-01T03:09:52;5.60;99.90
15926;DHT22;8062;53.882;10.642;2023-02-01T03:11:14;5.70;99.90
15926;DHT22;8062;53.882;10.642;2023-02-01T03:12:38;5.70;99.90
15926;DHT22;8062;53.882;10.642;2023-02-01T03:14:19;5.60;99.90
15926;DHT22;8062;53.882;10.642;2023-02-01T03:17:19;5.70;99.90
15926;DHT22;8062;53.882;10.642;2023-02-01T03:20:07;5.70;99.90
15926;DHT22;8062;53.882;10.642;2023-02-01T03:22:07;5.70;99.90
15926;DHT22;8062;53.882;10.642;2023-02-01T03:23:31;5.70;99.90
15926;DHT22;8062;53.882;10.642;2023-02-01T03:25:11;5.70;99.90
15926;DHT22;8062;53.882;10.642;2023-02-01T03:26:34;5.70;99.90
15926;DHT22;8062;53.882;10.642;2023-02-01T03:28:02;5.70;99.90
15926;DHT22;8062;53.882;10.642;2023-02-01T03:29:27;5.70;99.90
15926;DHT22;8062;53.882;10.642;2023-02-01T03:30:49;5.70;99.90
15926;DHT22;8062;53.882;10.642;2023-02-01T03:32:09;5.80;99.90
15926;DHT22;8062;53.882;10.642;2023-02-01T03:33:29;5.80;99.90
15926;DHT22;8062;53.882;10.642;2023-02-01T03:34:50;5.80;99.90
15926;DHT22;8062;53.882;10.642;2023-02-01T03:36:24;5.80;99.90
15926;DHT22;8062;53.882;10.642;2023-02-01T03:37:45;5.80;99.90
15926;DHT22;8062;53.882;10.642;2023-02-01T03:39:30;5.80;99.90
15926;DHT22;8062;53.882;10.642;2023-02-01T03:40:57;5.80;99.90
15926;DHT22;8062;53.882;10.642;2023-02-01T03:42:28;5.80;99.90
15926;DHT22;8062;53.882;10.642;2023-02-01T03:43:58;5.70;99.90
15926;DHT22;8062;53.882;10.642;2023-02-01T03:45:28;5.70;99.90
15926;DHT22;8062;53.882;10.642;2023-02-01T03:46:58;5.70;99.90
15926;DHT22;8062;53.882;10.642;2023-02-01T03:48:19;5.70;99.90
15926;DHT22;8062;53.882;10.642;2023-02-01T03:49:47;5.70;99.90
15926;DHT22;8062;53.882;10.642;2023-02-01T03:51:08;5.60;99.90
15926;DHT22;8062;53.882;10.642;2023-02-01T03:52:37;5.50;99.90
15926;DHT22;8062;53.882;10.642;2023-02-01T03:53:59;5.30;99.90
15926;DHT22;8062;53.882;10.642;2023-02-01T03:55:21;5.20;99.90
15926;DHT22;8062;53.882;10.642;2023-02-01T03:56:43;5.10;99.90
15926;DHT22;8062;53.882;10.642;2023-02-01T03:58:13;5.00;99.90
15926;DHT22;8062;53.882;10.642;2023-02-01T03:59:32;4.90;99.90
15926;DHT22;8062;53.882;10.642;2023-02-01T04:00:57;4.90;99.90
15926;DHT22;8062;53.882;10.642;2023-02-01T04:02:17;4.90;99.90
15926;DHT22;8062;53.882;10.642;2023-02-01T04:03:37;4.80;99.90
15926;DHT22;8062;53.882;10.642;2023-02-01T04:04:57;4.80;99.90
15926;DHT22;8062;53.882;10.642;2023-02-01T04:06:17;4.80;99.90
15926;DHT22;8062;53.882;10.642;2023-02-01T04:07:36;4.80;99.90
15926;DHT22;8062;53.882;10.642;2023-02-01T04:08:56;4.90;99.90
15926;DHT22;8062;53.882;10.642;2023-02-01T04:10:16;4.80;99.90
15926;DHT22;8062;53.882;10.642;2023-02-01T04:11:35;4.90;99.90
15926;DHT22;8062;53.882;10.642;2023-02-01T04:12:55;4.90;99.90
15926;DHT22;8062;53.882;10.642;2023-02-01T04:14:15;4.90;99.90
15926;DHT22;8062;53.882;10.642;2023-02-01T04:15:34;4.80;99.90
15926;DHT22;8062;53.882;10.642;2023-02-01T04:16:54;4.90;99.90
15926;DHT22;8062;53.882;10.642;2023-02-01T04:18:14;4.80;99.90
15926;DHT22;8062;53.882;10.642;2023-02-01T04:19:33;4.80;99.90
15926;DHT22;8062;53.882;10.642;2023-02-01T04:20:53;4.80;99.90
15926;DHT22;8062;53.882;10.642;2023-02-01T04:22:13;4.70;99.90
15926;DHT22;8062;53.882;10.642;2023-02-01T04:23:33;4.60;99.90
15926;DHT22;8062;53.882;10.642;2023-02-01T04:24:52;4.50;99.90
15926;DHT22;8062;53.882;10.642;2023-02-01T04:26:12;4.30;99.90
15926;DHT22;8062;53.882;10.642;2023-02-01T04:27:31;4.20;99.90
15926;DHT22;8062;53.882;10.642;2023-02-01T04:28:51;4.10;99.90
15926;DHT22;8062;53.882;10.642;2023-02-01T04:30:12;4.00;99.90
15926;DHT22;8062;53.882;10.642;2023-02-01T04:31:32;3.90;99.90
15926;DHT22;8062;53.882;10.642;2023-02-01T04:32:52;3.90;99.90
15926;DHT22;8062;53.882;10.642;2023-02-01T04:34:11;3.90;99.90
15926;DHT22;8062;53.882;10.642;2023-02-01T04:35:31;3.80;99.90
15926;DHT22;8062;53.882;10.642;2023-02-01T04:36:51;3.80;99.90
15926;DHT22;8062;53.882;10.642;2023-02-01T04:38:10;3.80;99.90
15926;DHT22;8062;53.882;10.642;2023-02-01T04:39:30;3.80;99.90
15926;DHT22;8062;53.882;10.642;2023-02-01T04:40:50;3.80;99.90
15926;DHT22;8062;53.882;10.642;2023-02-01T04:42:09;3.70;99.90
15926;DHT22;8062;53.882;10.642;2023-02-01T04:43:29;3.70;99.90
15926;DHT22;8062;53.882;10.642;2023-02-01T04:44:49;3.60;99.90
15926;DHT22;8062;53.882;10.642;2023-02-01T04:46:08;3.50;99.90
15926;DHT22;8062;53.882;10.642;2023-02-01T04:47:28;3.50;99.90
15926;DHT22;8062;53.882;10.642;2023-02-01T04:48:48;3.40;99.90
15926;DHT22;8062;53.882;10.642;2023-02-01T04:50:07;3.40;99.90
15926;DHT22;8062;53.882;10.642;2023-02-01T04:51:29;3.40;99.90
15926;DHT22;8062;53.882;10.642;2023-02-01T04:52:49;3.40;99.90
15926;DHT22;8062;53.882;10.642;2023-02-01T04:54:09;3.40;99.90
15926;DHT22;8062;53.882;10.642;2023-02-01T04:55:30;3.30;99.90
15926;DHT22;8062;53.882;10.642;2023-02-01T04:56:50;3.30;99.90
15926;DHT22;8062;53.882;10.642;2023-02-01T04:58:10;3.40;99.90
15926;DHT22;8062;53.882;10.642;2023-02-01T04:59:30;3.40;99.90
15926;DHT22;8062;53.882;10.642;2023-02-01T05:00:49;3.40;99.90
15926;DHT22;8062;53.882;10.642;2023-02-01T05:02:09;3.40;99.90
15926;DHT22;8062;53.882;10.642;2023-02-01T05:03:29;3.40;99.90
15926;DHT22;8062;53.882;10.642;2023-02-01T05:04:48;3.40;99.90
15926;DHT22;8062;53.882;10.642;2023-02-01T05:06:09;3.40;99.90
15926;DHT22;8062;53.882;10.642;2023-02-01T05:07:28;3.40;99.90
15926;DHT22;8062;53.882;10.642;2023-02-01T05:08:48;3.40;99.90
15926;DHT22;8062;53.882;10.642;2023-02-01T05:10:08;3.40;99.90
15926;DHT22;8062;53.882;10.642;2023-02-01T05:11:28;3.40;99.90
15926;DHT22;8062;53.882;10.642;2023-02-01T05:13:08;3.40;99.90
15926;DHT22;8062;53.882;10.642;2023-02-01T05:14:46;3.40;99.90
15926;DHT22;8062;53.882;10.642;2023-02-01T05:16:07;3.40;99.90
15926;DHT22;8062;53.882;10.642;2023-02-01T05:17:26;3.40;99.90
15926;DHT22;8062;53.882;10.642;2023-02-01T05:18:45;3.40;99.90
15926;DHT22;8062;53.882;10.642;2023-02-01T05:20:06;3.40;99.90
15926;DHT22;8062;53.882;10.642;2023-02-01T05:21:25;3.50;99.90
15926;DHT22;8062;53.882;10.642;2023-02-01T05:22:45;3.50;99.90
15926;DHT22;8062;53.882;10.642;2023-02-01T05:24:05;3.50;99.90
15926;DHT22;8062;53.882;10.642;2023-02-01T05:25:32;3.50;99.90
15926;DHT22;8062;53.882;10.642;2023-02-01T05:26:52;3.60;99.90
15926;DHT22;8062;53.882;10.642;2023-02-01T05:28:12;3.60;99.90
15926;DHT22;8062;53.882;10.642;2023-02-01T05:29:32;3.60;99.90
15926;DHT22;8062;53.882;10.642;2023-02-01T05:30:51;3.60;99.90
15926;DHT22;8062;53.882;10.642;2023-02-01T05:32:11;3.60;99.90
15926;DHT22;8062;53.882;10.642;2023-02-01T05:33:30;3.60;99.90
15926;DHT22;8062;53.882;10.642;2023-02-01T05:34:50;3.60;99.90
15926;DHT22;8062;53.882;10.642;2023-02-01T05:36:10;3.60;99.90
15926;DHT22;8062;53.882;10.642;2023-02-01T05:37:30;3.60;99.90
15926;DHT22;8062;53.882;10.642;2023-02-01T05:38:49;3.70;99.90
15926;DHT22;8062;53.882;10.642;2023-02-01T05:40:09;3.70;99.90
15926;DHT22;8062;53.882;10.642;2023-02-01T05:41:29;3.70;99.90
15926;DHT22;8062;53.882;10.642;2023-02-01T05:42:48;3.70;99.90
15926;DHT22;8062;53.882;10.642;2023-02-01T05:44:10;3.70;99.90
15926;DHT22;8062;53.882;10.642;2023-02-01T05:45:29;3.80;99.90
15926;DHT22;8062;53.882;10.642;2023-02-01T05:46:49;3.70;99.90
15926;DHT22;8062;53.882;10.642;2023-02-01T05:48:11;3.70;99.90
15926;DHT22;8062;53.882;10.642;2023-02-01T05:49:31;3.70;99.90
15926;DHT22;8062;53.882;10.642;2023-02-01T05:50:50;3.60;99.90
15926;DHT22;8062;53.882;10.642;2023-02-01T05:52:10;3.60;99.90
15926;DHT22;8062;53.882;10.642;2023-02-01T05:53:29;3.50;99.90
15926;DHT22;8062;53.882;10.642;2023-02-01T05:54:49;3.50;99.90
15926;DHT22;8062;53.882;10.642;2023-02-01T05:56:09;3.50;99.90
15926;DHT22;8062;53.882;10.642;2023-02-01T05:57:28;3.40;99.90
15926;DHT22;8062;53.882;10.642;2023-02-01T05:58:49;3.40;99.90
15926;DHT22;8062;53.882;10.642;2023-02-01T06:00:09;3.40;99.90
15926;DHT22;8062;53.882;10.642;2023-02-01T06:01:31;3.40;99.90
15926;DHT22;8062;53.882;10.642;2023-02-01T06:02:51;3.50;99.90
15926;DHT22;8062;53.882;10.642;2023-02-01T06:04:11;3.50;99.90
15926;DHT22;8062;53.882;10.642;2023-02-01T06:05:30;3.40;99.90
15926;DHT22;8062;53.882;10.642;2023-02-01T06:06:50;3.40;99.90
15926;DHT22;8062;53.882;10.642;2023-02-01T06:08:10;3.50;99.90
15926;DHT22;8062;53.882;10.642;2023-02-01T06:09:29;3.40;99.90
15926;DHT22;8062;53.882;10.642;2023-02-01T06:10:49;3.40;99.90
15926;DHT22;8062;53.882;10.642;2023-02-01T06:12:08;3.40;99.90
15926;DHT22;8062;53.882;10.642;2023-02-01T06:13:28;3.40;99.90
15926;DHT22;8062;53.882;10.642;2023-02-01T06:14:48;3.40;99.90
15926;DHT22;8062;53.882;10.642;2023-02-01T06:16:07;3.40;99.90
15926;DHT22;8062;53.882;10.642;2023-02-01T06:17:27;3.50;99.90
15926;DHT22;8062;53.882;10.642;2023-02-01T06:18:47;3.40;99.90
15926;DHT22;8062;53.882;10.642;2023-02-01T06:20:07;3.50;99.90
15926;DHT22;8062;53.882;10.642;2023-02-01T06:21:27;3.40;99.90
15926;DHT22;8062;53.882;10.642;2023-02-01T06:22:47;3.50;99.90
15926;DHT22;8062;53.882;10.642;2023-02-01T06:24:06;3.50;99.90
15926;DHT22;8062;53.882;10.642;2023-02-01T06:25:26;3.50;99.90
15926;DHT22;8062;53.882;10.642;2023-02-01T06:26:46;3.50;99.90
15926;DHT22;8062;53.882;10.642;2023-02-01T06:28:05;3.50;99.90
15926;DHT22;8062;53.882;10.642;2023-02-01T06:29:25;3.50;99.90
15926;DHT22;8062;53.882;10.642;2023-02-01T06:30:46;3.50;99.90
15926;DHT22;8062;53.882;10.642;2023-02-01T06:32:06;3.50;99.90
15926;DHT22;8062;53.882;10.642;2023-02-01T06:33:26;3.50;99.90
15926;DHT22;8062;53.882;10.642;2023-02-01T06:34:46;3.50;99.90
15926;DHT22;8062;53.882;10.642;2023-02-01T06:36:07;3.50;99.90
15926;DHT22;8062;53.882;10.642;2023-02-01T06:37:27;3.50;99.90
15926;DHT22;8062;53.882;10.642;2023-02-01T06:38:48;3.50;99.90
15926;DHT22;8062;53.882;10.642;2023-02-01T06:40:08;3.40;99.90
15926;DHT22;8062;53.882;10.642;2023-02-01T06:41:28;3.40;99.90
15926;DHT22;8062;53.882;10.642;2023-02-01T06:42:48;3.40;99.90
15926;DHT22;8062;53.882;10.642;2023-02-01T06:44:08;3.40;99.90
15926;DHT22;8062;53.882;10.642;2023-02-01T06:45:28;3.30;99.90
15926;DHT22;8062;53.882;10.642;2023-02-01T06:46:47;3.30;99.90
15926;DHT22;8062;53.882;10.642;2023-02-01T06:48:07;3.30;99.90
15926;DHT22;8062;53.882;10.642;2023-02-01T06:49:27;3.30;99.90
15926;DHT22;8062;53.882;10.642;2023-02-01T06:50:46;3.30;99.90
15926;DHT22;8062;53.882;10.642;2023-02-01T06:52:06;3.30;99.90
15926;DHT22;8062;53.882;10.642;2023-02-01T06:53:26;3.30;99.90
15926;DHT22;8062;53.882;10.642;2023-02-01T06:54:45;3.30;99.90
15926;DHT22;8062;53.882;10.642;2023-02-01T06:56:05;3.30;99.90
15926;DHT22;8062;53.882;10.642;2023-02-01T06:57:25;3.30;99.90
15926;DHT22;8062;53.882;10.642;2023-02-01T06:58:47;3.30;99.90
15926;DHT22;8062;53.882;10.642;2023-02-01T07:00:07;3.30;99.90
15926;DHT22;8062;53.882;10.642;2023-02-01T07:01:27;3.30;99.90
15926;DHT22;8062;53.882;10.642;2023-02-01T07:02:46;3.30;99.90
15926;DHT22;8062;53.882;10.642;2023-02-01T07:04:06;3.30;99.90
15926;DHT22;8062;53.882;10.642;2023-02-01T07:05:26;3.40;99.90
15926;DHT22;8062;53.882;10.642;2023-02-01T07:06:45;3.40;99.90
15926;DHT22;8062;53.882;10.642;2023-02-01T07:08:05;3.40;99.90
15926;DHT22;8062;53.882;10.642;2023-02-01T07:09:25;3.40;99.90
15926;DHT22;8062;53.882;10.642;2023-02-01T07:10:44;3.40;99.90
15926;DHT22;8062;53.882;10.642;2023-02-01T07:12:04;3.40;99.90
15926;DHT22;8062;53.882;10.642;2023-02-01T07:13:24;3.40;99.90
15926;DHT22;8062;53.882;10.642;2023-02-01T07:14:44;3.40;99.90
15926;DHT22;8062;53.882;10.642;2023-02-01T07:16:10;3.40;99.90
15926;DHT22;8062;53.882;10.642;2023-02-01T07:17:30;3.40;99.90
15926;DHT22;8062;53.882;10.642;2023-02-01T07:18:51;3.40;99.90
15926;DHT22;8062;53.882;10.642;2023-02-01T07:20:11;3.40;99.90
15926;DHT22;8062;53.882;10.642;2023-02-01T07:21:30;3.40;99.90
15926;DHT22;8062;53.882;10.642;2023-02-01T07:22:55;3.40;99.90
15926;DHT22;8062;53.882;10.642;2023-02-01T07:24:15;3.40;99.90
15926;DHT22;8062;53.882;10.642;2023-02-01T07:25:34;3.40;99.90
15926;DHT22;8062;53.882;10.642;2023-02-01T07:26:54;3.40;99.90
15926;DHT22;8062;53.882;10.642;2023-02-01T07:28:14;3.40;99.90
15926;DHT22;8062;53.882;10.642;2023-02-01T07:29:33;3.40;99.90
15926;DHT22;8062;53.882;10.642;2023-02-01T07:30:53;3.40;99.90
15926;DHT22;8062;53.882;10.642;2023-02-01T07:32:12;3.40;99.90
15926;DHT22;8062;53.882;10.642;2023-02-01T07:33:32;3.40;99.90
15926;DHT22;8062;53.882;10.642;2023-02-01T07:34:52;3.40;99.90
15926;DHT22;8062;53.882;10.642;2023-02-01T07:36:14;3.40;99.90
15926;DHT22;8062;53.882;10.642;2023-02-01T07:37:34;3.30;99.90
15926;DHT22;8062;53.882;10.642;2023-02-01T07:38:54;3.40;99.90
15926;DHT22;8062;53.882;10.642;2023-02-01T07:40:14;3.30;99.90
15926;DHT22;8062;53.882;10.642;2023-02-01T07:41:33;3.40;99.90
15926;DHT22;8062;53.882;10.642;2023-02-01T07:42:56;3.40;99.90
15926;DHT22;8062;53.882;10.642;2023-02-01T07:44:16;3.40;99.90
15926;DHT22;8062;53.882;10.642;2023-02-01T07:45:38;3.40;99.90
15926;DHT22;8062;53.882;10.642;2023-02-01T07:46:57;3.40;99.90
15926;DHT22;8062;53.882;10.642;2023-02-01T07:48:17;3.40;99.90
15926;DHT22;8062;53.882;10.642;2023-02-01T07:49:37;3.40;99.90
15926;DHT22;8062;53.882;10.642;2023-02-01T07:52:17;3.40;99.90
15926;DHT22;8062;53.882;10.642;2023-02-01T07:53:37;3.40;99.90
15926;DHT22;8062;53.882;10.642;2023-02-01T07:54:57;3.40;99.90
15926;DHT22;8062;53.882;10.642;2023-02-01T07:56:18;3.40;99.90
15926;DHT22;8062;53.882;10.642;2023-02-01T07:57:38;3.40;99.90
15926;DHT22;8062;53.882;10.642;2023-02-01T07:58:58;3.50;99.90
15926;DHT22;8062;53.882;10.642;2023-02-01T08:00:19;3.60;99.90
15926;DHT22;8062;53.882;10.642;2023-02-01T08:01:58;3.60;99.90
15926;DHT22;8062;53.882;10.642;2023-02-01T08:03:18;3.70;99.90
15926;DHT22;8062;53.882;10.642;2023-02-01T08:04:37;3.70;99.90
15926;DHT22;8062;53.882;10.642;2023-02-01T08:05:57;3.70;99.90
15926;DHT22;8062;53.882;10.642;2023-02-01T08:07:16;3.80;99.90
15926;DHT22;8062;53.882;10.642;2023-02-01T08:08:36;3.80;99.90
15926;DHT22;8062;53.882;10.642;2023-02-01T08:09:55;3.80;99.90
15926;DHT22;8062;53.882;10.642;2023-02-01T08:11:15;3.90;99.90
15926;DHT22;8062;53.882;10.642;2023-02-01T08:12:36;3.90;99.90
15926;DHT22;8062;53.882;10.642;2023-02-01T08:13:55;4.00;99.90
15926;DHT22;8062;53.882;10.642;2023-02-01T08:15:15;4.10;99.90
15926;DHT22;8062;53.882;10.642;2023-02-01T08:16:35;4.10;99.90
15926;DHT22;8062;53.882;10.642;2023-02-01T08:17:56;4.20;99.90
15926;DHT22;8062;53.882;10.642;2023-02-01T08:19:16;4.30;99.90
15926;DHT22;8062;53.882;10.642;2023-02-01T08:20:36;4.40;99.90
15926;DHT22;8062;53.882;10.642;2023-02-01T08:21:57;4.50;99.90
15926;DHT22;8062;53.882;10.642;2023-02-01T08:23:19;4.60;99.90
15926;DHT22;8062;53.882;10.642;2023-02-01T08:24:38;4.70;99.90
15926;DHT22;8062;53.882;10.642;2023-02-01T08:26:05;4.80;99.90
15926;DHT22;8062;53.882;10.642;2023-02-01T08:27:25;4.80;99.90
15926;DHT22;8062;53.882;10.642;2023-02-01T08:28:48;4.90;99.90
15926;DHT22;8062;53.882;10.642;2023-02-01T08:30:08;4.90;99.90
15926;DHT22;8062;53.882;10.642;2023-02-01T08:31:29;4.90;99.90
15926;DHT22;8062;53.882;10.642;2023-02-01T08:32:49;4.90;99.90
15926;DHT22;8062;53.882;10.642;2023-02-01T08:34:09;5.00;99.90
15926;DHT22;8062;53.882;10.642;2023-02-01T08:35:28;5.10;99.90
15926;DHT22;8062;53.882;10.642;2023-02-01T08:36:48;5.10;99.90
15926;DHT22;8062;53.882;10.642;2023-02-01T08:38:08;5.20;99.90
15926;DHT22;8062;53.882;10.642;2023-02-01T08:39:27;5.20;99.90
15926;DHT22;8062;53.882;10.642;2023-02-01T08:40:47;5.30;99.90
15926;DHT22;8062;53.882;10.642;2023-02-01T08:42:07;5.20;99.90
15926;DHT22;8062;53.882;10.642;2023-02-01T08:43:45;5.10;99.90
15926;DHT22;8062;53.882;10.642;2023-02-01T08:45:06;5.00;99.90
15926;DHT22;8062;53.882;10.642;2023-02-01T08:46:27;4.90;99.90
15926;DHT22;8062;53.882;10.642;2023-02-01T08:47:47;4.80;99.90
15926;DHT22;8062;53.882;10.642;2023-02-01T08:49:07;4.80;99.90
15926;DHT22;8062;53.882;10.642;2023-02-01T08:50:26;4.80;99.90
15926;DHT22;8062;53.882;10.642;2023-02-01T08:51:46;4.70;99.90
15926;DHT22;8062;53.882;10.642;2023-02-01T08:53:06;4.70;99.90
15926;DHT22;8062;53.882;10.642;2023-02-01T08:54:25;4.70;99.90
15926;DHT22;8062;53.882;10.642;2023-02-01T08:55:46;4.70;99.90
15926;DHT22;8062;53.882;10.642;2023-02-01T08:57:06;4.60;99.90
15926;DHT22;8062;53.882;10.642;2023-02-01T08:58:26;4.60;99.90
15926;DHT22;8062;53.882;10.642;2023-02-01T08:59:45;4.60;99.90
15926;DHT22;8062;53.882;10.642;2023-02-01T09:01:15;4.60;99.90
15926;DHT22;8062;53.882;10.642;2023-02-01T09:02:36;4.70;99.90
15926;DHT22;8062;53.882;10.642;2023-02-01T09:03:55;4.70;99.90
15926;DHT22;8062;53.882;10.642;2023-02-01T09:05:15;4.70;99.90
15926;DHT22;8062;53.882;10.642;2023-02-01T09:06:40;4.80;99.90